Time;durP1;ratioP1;P1;durP2;ratioP2;P2;SDS_P1;SDS_P2;PMS_P1;PMS_P2;Temp;Humidity;BMP_temperature;BMP_pressure;BME280_temperature;BME280_humidity;BME280_pressure;Samples;Min_cycle;Max_cycle;Signal;HPM_P1;HPM_P2
2023/08/22 00:01:56;;;;;;;5.35;2.35;;;20.00;99.90;;;;;;4945221;29;20059;-59
2023/08/22 00:04:22;;;;;;;2.80;2.30;;;19.90;99.90;;;;;;4944856;28;20086;-59
2023/08/22 00:06:47;;;;;;;5.68;2.17;;;19.90;99.90;;;;;;4935188;28;20107;-59
2023/08/22 00:09:13;;;;;;;5.28;2.90;;;19.90;99.90;;;;;;4947579;28;20032;-59
2023/08/22 00:11:38;;;;;;;4.13;2.30;;;19.90;99.90;;;;;;4937544;29;20027;-59
2023/08/22 00:14:04;;;;;;;6.70;2.47;;;19.90;99.90;;;;;;4939498;29;20027;-59
2023/08/22 00:16:29;;;;;;;4.13;2.63;;;19.90;99.90;;;;;;4939835;29;20028;-59
2023/08/22 00:18:55;;;;;;;4.50;2.58;;;19.90;99.90;;;;;;4948510;29;20027;-59
2023/08/22 00:21:22;;;;;;;5.00;2.22;;;19.80;99.90;;;;;;4949221;28;20027;-59
2023/08/22 00:23:47;;;;;;;3.05;2.40;;;19.90;99.90;;;;;;4945164;28;20060;-59
2023/08/22 00:26:14;;;;;;;7.43;2.88;;;19.90;99.90;;;;;;4948935;29;20027;-60
2023/08/22 00:28:39;;;;;;;6.00;3.13;;;19.90;99.90;;;;;;4948383;28;20111;-59
2023/08/22 00:31:05;;;;;;;4.55;3.28;;;19.90;99.90;;;;;;4948745;28;20106;-59
2023/08/22 00:33:30;;;;;;;4.55;2.53;;;19.90;99.90;;;;;;4948464;28;20491;-59
2023/08/22 00:35:56;;;;;;;2.55;2.30;;;19.90;99.90;;;;;;4948494;28;20511;-59
2023/08/22 00:38:21;;;;;;;5.45;2.80;;;19.90;99.90;;;;;;4948330;28;20039;-59
2023/08/22 00:40:47;;;;;;;7.05;2.35;;;19.90;99.90;;;;;;4990407;28;20028;-59
2023/08/22 00:43:12;;;;;;;6.50;2.53;;;19.90;99.90;;;;;;4948558;29;20107;-59
2023/08/22 00:45:38;;;;;;;3.90;2.47;;;19.90;99.90;;;;;;4944193;28;20023;-59
2023/08/22 00:48:04;;;;;;;3.88;1.90;;;19.90;99.90;;;;;;4947395;29;20106;-59
2023/08/22 00:50:30;;;;;;;6.55;2.90;;;19.90;99.90;;;;;;4948594;29;20098;-60
2023/08/22 00:52:55;;;;;;;5.55;2.35;;;19.90;99.90;;;;;;4945996;29;20035;-60
2023/08/22 00:55:21;;;;;;;6.88;2.20;;;19.90;99.90;;;;;;4948693;28;20205;-60
2023/08/22 00:57:46;;;;;;;3.97;2.00;;;19.90;99.90;;;;;;4943942;29;20032;-60
2023/08/22 01:00:12;;;;;;;6.55;2.45;;;19.90;99.90;;;;;;4948502;28;20046;-60
2023/08/22 01:02:39;;;;;;;3.70;2.30;;;19.80;99.90;;;;;;4943450;28;20038;-60
2023/08/22 01:05:05;;;;;;;5.63;2.30;;;19.80;99.90;;;;;;4947769;29;20023;-60
2023/08/22 01:07:46;;;;;;;4.00;2.38;;;19.80;99.90;;;;;;4948215;28;20455;-60
2023/08/22 01:10:24;;;;;;;4.43;2.30;;;19.80;99.90;;;;;;4948454;28;20015;-60
2023/08/22 01:12:58;;;;;;;3.50;1.80;;;19.80;99.90;;;;;;4948306;28;20031;-60
2023/08/22 01:15:26;;;;;;;3.92;2.30;;;19.80;99.90;;;;;;4948483;29;20039;-60
2023/08/22 01:17:54;;;;;;;3.20;2.13;;;19.80;99.90;;;;;;4947830;29;20485;-59
2023/08/22 01:20:21;;;;;;;6.35;2.20;;;19.80;99.90;;;;;;4948589;28;20126;-60
2023/08/22 01:22:46;;;;;;;4.55;2.10;;;19.70;99.90;;;;;;4944174;28;20034;-61
2023/08/22 01:25:12;;;;;;;4.03;2.42;;;19.70;99.90;;;;;;4948464;29;20091;-60
2023/08/22 01:28:08;;;;;;;4.75;2.17;;;19.70;99.90;;;;;;4947710;28;20031;-60
2023/08/22 01:30:48;;;;;;;4.32;2.10;;;19.80;99.90;;;;;;4948281;28;20027;-60
2023/08/22 01:33:39;;;;;;;4.07;2.07;;;19.70;99.90;;;;;;4943369;28;20023;-60
2023/08/22 01:36:08;;;;;;;2.85;1.90;;;19.70;99.90;;;;;;4952092;28;20050;-60
2023/08/22 01:38:34;;;;;;;4.18;2.03;;;19.70;99.90;;;;;;4959367;28;20477;-60
2023/08/22 01:41:01;;;;;;;4.55;2.33;;;19.80;99.90;;;;;;4946790;28;20114;-60
2023/08/22 01:43:27;;;;;;;2.97;2.22;;;19.70;99.90;;;;;;4951650;29;20020;-60
2023/08/22 01:45:53;;;;;;;5.00;2.00;;;19.70;99.90;;;;;;4951965;28;20027;-60
2023/08/22 01:48:19;;;;;;;3.55;2.40;;;19.70;99.90;;;;;;4951092;28;20028;-60
2023/08/22 01:50:44;;;;;;;5.85;2.35;;;19.70;99.90;;;;;;4951605;28;20042;-60
2023/08/22 01:53:10;;;;;;;8.25;2.05;;;19.60;99.90;;;;;;4951353;29;20117;-60
2023/08/22 01:55:35;;;;;;;5.47;2.15;;;19.60;99.90;;;;;;4951289;28;20445;-60
2023/08/22 01:58:01;;;;;;;6.15;2.58;;;19.50;99.90;;;;;;4950772;29;20042;-60
2023/08/22 02:00:26;;;;;;;3.28;2.40;;;19.50;99.90;;;;;;4951234;28;20024;-60
2023/08/22 02:02:52;;;;;;;4.22;2.25;;;19.40;99.90;;;;;;4950989;28;20472;-60
2023/08/22 02:05:17;;;;;;;4.15;2.38;;;19.40;99.90;;;;;;4946804;28;20032;-59
2023/08/22 02:07:43;;;;;;;4.20;2.67;;;19.50;99.90;;;;;;4946990;28;20027;-60
2023/08/22 02:10:08;;;;;;;4.43;2.38;;;19.50;99.90;;;;;;4992792;28;20019;-60
2023/08/22 02:12:34;;;;;;;3.92;2.30;;;19.50;99.90;;;;;;4951162;29;20031;-60
2023/08/22 02:14:59;;;;;;;5.32;2.20;;;19.50;99.90;;;;;;4950944;29;20031;-59
2023/08/22 02:17:25;;;;;;;4.45;2.22;;;19.50;99.90;;;;;;4950451;28;20054;-59
2023/08/22 02:19:50;;;;;;;3.75;2.10;;;19.50;99.90;;;;;;4951227;28;20102;-59
2023/08/22 02:22:16;;;;;;;3.35;2.28;;;19.50;99.90;;;;;;4950818;29;20023;-59
2023/08/22 02:24:41;;;;;;;5.57;2.30;;;19.50;99.90;;;;;;4950711;28;20476;-60
2023/08/22 02:27:07;;;;;;;3.60;2.17;;;19.50;99.90;;;;;;4931719;28;20051;-60
2023/08/22 02:29:32;;;;;;;4.07;2.10;;;19.50;99.90;;;;;;4931408;29;20056;-60
2023/08/22 02:31:58;;;;;;;4.50;2.25;;;19.50;99.90;;;;;;4945146;29;20099;-60
2023/08/22 02:34:25;;;;;;;3.17;2.13;;;19.50;99.90;;;;;;4945825;28;20028;-59
2023/08/22 02:36:51;;;;;;;2.03;1.80;;;19.40;99.90;;;;;;4948266;28;20563;-60
2023/08/22 02:39:16;;;;;;;4.13;2.67;;;19.50;99.90;;;;;;4950283;28;20034;-60
2023/08/22 02:41:42;;;;;;;3.35;2.40;;;19.50;99.90;;;;;;4950402;28;20393;-60
2023/08/22 02:44:07;;;;;;;3.85;2.47;;;19.50;99.90;;;;;;4950245;28;20046;-60
2023/08/22 02:46:33;;;;;;;3.95;2.40;;;19.50;99.90;;;;;;4950816;28;20031;-60
2023/08/22 02:48:59;;;;;;;3.97;2.78;;;19.50;99.90;;;;;;4949635;28;20035;-59
2023/08/22 02:51:24;;;;;;;3.72;2.40;;;19.50;99.90;;;;;;4950788;28;20026;-60
2023/08/22 02:53:50;;;;;;;4.10;2.33;;;19.60;99.90;;;;;;4949382;28;20496;-60
2023/08/22 02:56:15;;;;;;;4.05;2.60;;;19.50;99.90;;;;;;4950361;29;20027;-60
2023/08/22 02:58:41;;;;;;;5.70;2.67;;;19.60;99.90;;;;;;4949717;29;20039;-60
2023/08/22 03:01:07;;;;;;;7.80;2.60;;;19.60;99.90;;;;;;4963882;28;20039;-60
2023/08/22 03:03:33;;;;;;;3.35;2.22;;;19.50;99.90;;;;;;4949809;28;20015;-60
2023/08/22 03:05:59;;;;;;;5.78;2.70;;;19.50;99.90;;;;;;4950174;28;20110;-60
2023/08/22 03:08:25;;;;;;;3.80;2.45;;;19.50;99.90;;;;;;4949638;28;20023;-60
2023/08/22 03:10:50;;;;;;;3.35;2.58;;;19.40;99.90;;;;;;4949996;28;20089;-60
2023/08/22 03:13:16;;;;;;;7.38;2.15;;;19.40;99.90;;;;;;4950049;28;20400;-61
2023/08/22 03:15:41;;;;;;;4.10;2.53;;;19.40;99.90;;;;;;4950043;28;20055;-60
2023/08/22 03:18:08;;;;;;;5.47;2.72;;;19.40;99.90;;;;;;4949172;28;20032;-60
2023/08/22 03:20:33;;;;;;;5.55;2.60;;;19.40;99.90;;;;;;4945529;28;20374;-60
2023/08/22 03:22:59;;;;;;;4.53;2.28;;;19.40;99.90;;;;;;4947662;29;20037;-61
2023/08/22 03:25:25;;;;;;;4.30;2.63;;;19.30;99.90;;;;;;4949809;28;20024;-60
2023/08/22 03:27:50;;;;;;;4.22;2.80;;;19.40;99.90;;;;;;4949553;28;20035;-60
2023/08/22 03:30:17;;;;;;;4.03;2.65;;;19.40;99.90;;;;;;4941931;29;20119;-61
2023/08/22 03:32:42;;;;;;;5.93;3.00;;;19.40;99.90;;;;;;4949376;28;20041;-61
2023/08/22 03:35:08;;;;;;;5.72;2.40;;;19.40;99.90;;;;;;4947544;28;20032;-61
2023/08/22 03:37:33;;;;;;;3.47;2.30;;;19.30;99.90;;;;;;4978731;28;20029;-61
2023/08/22 03:40:00;;;;;;;3.53;2.38;;;19.30;99.90;;;;;;4961482;28;20104;-61
2023/08/22 03:42:25;;;;;;;4.43;2.63;;;19.30;99.90;;;;;;4949526;28;20062;-61
2023/08/22 03:44:52;;;;;;;4.65;2.38;;;19.30;99.90;;;;;;4949544;28;20501;-60
2023/08/22 03:47:17;;;;;;;6.78;2.60;;;19.30;99.90;;;;;;4940717;29;20072;-61
2023/08/22 03:49:43;;;;;;;3.67;2.25;;;19.30;99.90;;;;;;4949740;29;20035;-60
2023/08/22 03:52:08;;;;;;;6.57;2.72;;;19.30;99.90;;;;;;4949615;29;20027;-61
2023/08/22 03:54:34;;;;;;;5.78;2.63;;;19.30;99.90;;;;;;4949182;28;20433;-60
2023/08/22 03:57:00;;;;;;;3.75;2.40;;;19.40;99.90;;;;;;4935072;29;20055;-61
2023/08/22 03:59:25;;;;;;;3.75;2.55;;;19.30;99.90;;;;;;4937254;29;20027;-60
2023/08/22 04:01:51;;;;;;;5.78;3.15;;;19.40;99.90;;;;;;4936493;28;20066;-60
2023/08/22 04:04:17;;;;;;;3.22;2.13;;;19.40;99.90;;;;;;4935076;29;20316;-60
2023/08/22 04:06:42;;;;;;;3.50;2.42;;;19.40;99.90;;;;;;4941261;28;20023;-60
2023/08/22 04:09:09;;;;;;;6.07;2.72;;;19.40;99.90;;;;;;4936890;28;20016;-61
2023/08/22 04:11:34;;;;;;;5.15;2.33;;;19.30;99.90;;;;;;4938152;29;20030;-61
2023/08/22 04:14:00;;;;;;;3.70;2.55;;;19.30;99.90;;;;;;4939311;28;20114;-61
2023/08/22 04:16:25;;;;;;;3.92;2.70;;;19.30;99.90;;;;;;4946224;28;20396;-61
2023/08/22 04:18:51;;;;;;;5.03;2.80;;;19.30;99.90;;;;;;4948471;28;20455;-62
2023/08/22 04:21:16;;;;;;;4.45;2.45;;;19.30;99.90;;;;;;4947259;28;20027;-62
2023/08/22 04:23:42;;;;;;;4.95;2.80;;;19.30;99.90;;;;;;4947519;28;20034;-62
2023/08/22 04:26:08;;;;;;;6.18;2.40;;;19.30;99.90;;;;;;4947469;29;20396;-62
2023/08/22 04:28:34;;;;;;;4.13;2.55;;;19.20;99.90;;;;;;4946832;28;20367;-61
2023/08/22 04:31:00;;;;;;;6.30;2.40;;;19.30;99.90;;;;;;4947204;28;20114;-63
2023/08/22 04:33:25;;;;;;;3.88;2.40;;;19.30;99.90;;;;;;4946903;28;20110;-62
2023/08/22 04:35:51;;;;;;;3.65;2.53;;;19.30;99.90;;;;;;4948132;28;20031;-62
2023/08/22 04:38:16;;;;;;;5.55;2.80;;;19.30;99.90;;;;;;4945276;28;20069;-62
2023/08/22 04:40:46;;;;;;;5.13;2.50;;;19.30;99.90;;;;;;4936407;29;20111;-61
2023/08/22 04:43:12;;;;;;;2.90;2.50;;;19.30;99.90;;;;;;4944801;28;20023;-61
2023/08/22 04:45:37;;;;;;;3.90;2.65;;;19.30;99.90;;;;;;4948694;29;20074;-61
2023/08/22 04:48:03;;;;;;;4.35;3.30;;;19.30;99.90;;;;;;4938537;28;20039;-62
2023/08/22 04:50:31;;;;;;;5.97;3.65;;;19.40;99.90;;;;;;4948648;28;20030;-61
2023/08/22 04:52:57;;;;;;;4.88;2.72;;;19.40;99.90;;;;;;4948535;28;20022;-61
2023/08/22 04:55:23;;;;;;;6.97;2.83;;;19.40;99.90;;;;;;4944239;29;20028;-61
2023/08/22 04:57:49;;;;;;;2.33;2.13;;;19.40;99.90;;;;;;4944178;29;20030;-61
2023/08/22 05:00:16;;;;;;;3.83;2.25;;;19.40;99.90;;;;;;4948257;28;20476;-61
2023/08/22 05:02:42;;;;;;;3.40;2.97;;;19.30;99.90;;;;;;4948043;28;20110;-60
2023/08/22 05:05:10;;;;;;;5.78;2.67;;;19.30;99.90;;;;;;4945547;28;20102;-60
2023/08/22 05:07:36;;;;;;;6.38;2.70;;;19.30;99.90;;;;;;4941190;28;20028;-62
2023/08/22 05:10:02;;;;;;;4.38;2.55;;;19.40;99.90;;;;;;5017556;28;20499;-61
2023/08/22 05:12:28;;;;;;;5.10;2.58;;;19.40;99.90;;;;;;4972991;28;20050;-61
2023/08/22 05:14:55;;;;;;;5.55;2.60;;;19.50;99.90;;;;;;4930980;29;20270;-62
2023/08/22 05:17:21;;;;;;;3.60;2.80;;;19.50;99.90;;;;;;4936471;28;20035;-61
2023/08/22 05:19:46;;;;;;;8.70;2.83;;;19.60;99.90;;;;;;4937066;29;20078;-61
2023/08/22 05:22:12;;;;;;;4.00;2.60;;;19.60;99.90;;;;;;4958237;28;20031;-61
2023/08/22 05:24:38;;;;;;;5.53;2.60;;;19.70;99.90;;;;;;4941461;29;20035;-61
2023/08/22 05:27:04;;;;;;;5.32;2.65;;;19.70;99.90;;;;;;4946001;29;20020;-60
2023/08/22 05:29:29;;;;;;;3.45;2.40;;;19.70;99.90;;;;;;4951502;28;20015;-61
2023/08/22 05:31:55;;;;;;;4.93;2.38;;;19.70;99.90;;;;;;4951412;28;20532;-61
2023/08/22 05:34:20;;;;;;;4.88;2.75;;;19.70;99.90;;;;;;4951577;29;20050;-61
2023/08/22 05:36:46;;;;;;;5.43;2.63;;;19.80;99.90;;;;;;4946767;28;20036;-61
2023/08/22 05:39:11;;;;;;;4.47;2.53;;;19.80;99.90;;;;;;4949466;28;20420;-62
2023/08/22 05:41:37;;;;;;;3.45;2.58;;;19.80;99.90;;;;;;4948954;28;20035;-61
2023/08/22 05:44:02;;;;;;;3.97;2.50;;;19.80;99.90;;;;;;4943575;29;20093;-61
2023/08/22 05:46:28;;;;;;;5.95;2.60;;;19.90;99.90;;;;;;4939014;29;20091;-62
2023/08/22 05:48:53;;;;;;;6.10;3.00;;;19.90;99.90;;;;;;4939658;28;20019;-61
2023/08/22 05:51:19;;;;;;;4.10;2.85;;;19.90;99.90;;;;;;4938584;29;20529;-61
2023/08/22 05:53:44;;;;;;;3.38;2.45;;;20.00;99.90;;;;;;4941332;29;20245;-61
2023/08/22 05:56:10;;;;;;;3.58;2.47;;;20.00;99.90;;;;;;4944557;28;20031;-60
2023/08/22 05:58:35;;;;;;;4.95;2.80;;;20.00;99.90;;;;;;4942634;28;20027;-61
2023/08/22 06:01:09;;;;;;;4.82;3.15;;;20.00;99.90;;;;;;4944595;29;20450;-61
2023/08/22 06:03:35;;;;;;;5.75;2.88;;;20.00;99.90;;;;;;4941894;28;20023;-61
2023/08/22 06:06:01;;;;;;;5.60;2.60;;;20.00;99.90;;;;;;4943747;29;20023;-62
2023/08/22 06:08:26;;;;;;;6.38;2.95;;;20.00;99.90;;;;;;4955064;28;20029;-62
2023/08/22 06:10:52;;;;;;;3.50;2.90;;;20.00;99.90;;;;;;4953210;28;20063;-61
2023/08/22 06:13:17;;;;;;;9.10;3.38;;;20.10;99.90;;;;;;4945041;28;20403;-62
2023/08/22 06:15:43;;;;;;;3.95;2.75;;;20.10;99.90;;;;;;4946466;28;20070;-61
2023/08/22 06:18:08;;;;;;;6.18;2.90;;;20.10;99.90;;;;;;4948194;28;20374;-62
2023/08/22 06:20:38;;;;;;;3.78;2.70;;;20.10;99.90;;;;;;4944154;28;20028;-61
2023/08/22 06:23:04;;;;;;;3.13;2.42;;;20.20;99.90;;;;;;4946638;28;20050;-61
2023/08/22 06:25:30;;;;;;;4.68;2.83;;;20.20;99.90;;;;;;4950372;29;20540;-62
2023/08/22 06:27:55;;;;;;;5.30;3.03;;;20.20;99.90;;;;;;4949825;28;20034;-62
2023/08/22 06:30:22;;;;;;;8.35;2.80;;;20.30;99.90;;;;;;4948528;28;20019;-58
2023/08/22 06:32:47;;;;;;;5.93;2.72;;;20.30;99.90;;;;;;4950636;29;20039;-60
2023/08/22 06:35:13;;;;;;;5.97;2.75;;;20.20;99.90;;;;;;4950363;28;20653;-59
2023/08/22 06:37:39;;;;;;;5.78;2.95;;;20.20;99.90;;;;;;4945759;28;20188;-59
2023/08/22 06:40:05;;;;;;;6.32;3.20;;;20.20;99.90;;;;;;4947724;29;20031;-60
2023/08/22 06:42:31;;;;;;;4.40;2.60;;;20.20;99.90;;;;;;4950023;28;20092;-60
2023/08/22 06:44:57;;;;;;;3.63;2.40;;;20.30;99.90;;;;;;4945838;29;20028;-60
2023/08/22 06:47:23;;;;;;;4.63;2.65;;;20.30;99.90;;;;;;4949554;29;20448;-60
2023/08/22 06:49:48;;;;;;;4.20;2.80;;;20.30;99.90;;;;;;4950286;28;20034;-60
2023/08/22 06:52:14;;;;;;;5.53;2.95;;;20.30;99.90;;;;;;4950374;28;20044;-60
2023/08/22 06:54:39;;;;;;;5.97;3.20;;;20.40;99.90;;;;;;4950255;28;20443;-59
2023/08/22 06:57:06;;;;;;;5.82;2.60;;;20.40;99.90;;;;;;4945850;28;20039;-59
2023/08/22 06:59:31;;;;;;;7.03;2.78;;;20.50;99.90;;;;;;4950020;29;20035;-59
2023/08/22 07:01:58;;;;;;;7.35;2.90;;;20.60;99.90;;;;;;4945608;28;20027;-60
2023/08/22 07:04:23;;;;;;;5.47;3.05;;;20.70;99.90;;;;;;4949449;29;20031;-59
2023/08/22 07:06:49;;;;;;;11.38;3.58;;;20.80;99.90;;;;;;4949628;28;20389;-60
2023/08/22 07:09:15;;;;;;;7.45;3.03;;;20.90;99.90;;;;;;4949966;28;20032;-60
2023/08/22 07:11:40;;;;;;;6.93;3.00;;;20.90;99.90;;;;;;4949855;28;20043;-59
2023/08/22 07:14:06;;;;;;;8.38;2.60;;;21.10;99.90;;;;;;4949795;28;20093;-59
2023/08/22 07:16:32;;;;;;;7.72;3.08;;;21.20;99.90;;;;;;4949860;28;20400;-59
2023/08/22 07:18:57;;;;;;;5.00;2.90;;;21.30;99.90;;;;;;4949112;28;20164;-59
2023/08/22 07:21:23;;;;;;;4.90;2.90;;;21.40;99.90;;;;;;4945485;28;20054;-59
2023/08/22 07:23:48;;;;;;;4.93;2.53;;;21.40;99.90;;;;;;4938910;28;20058;-59
2023/08/22 07:26:14;;;;;;;6.55;2.70;;;21.40;99.90;;;;;;4960531;28;20107;-59
2023/08/22 07:28:39;;;;;;;12.35;3.30;;;21.50;99.90;;;;;;4943893;28;20020;-59
2023/08/22 07:31:06;;;;;;;8.57;2.90;;;21.50;99.90;;;;;;4944586;29;20035;-60
2023/08/22 07:33:32;;;;;;;5.72;2.90;;;21.50;99.90;;;;;;4949002;28;20031;-60
2023/08/22 07:35:57;;;;;;;4.85;2.83;;;21.70;99.90;;;;;;4948892;28;20043;-60
2023/08/22 07:38:24;;;;;;;4.07;2.80;;;21.80;99.90;;;;;;4946742;28;20051;-60
2023/08/22 07:40:50;;;;;;;4.78;2.83;;;21.90;99.90;;;;;;4948552;28;20502;-60
2023/08/22 07:43:15;;;;;;;5.22;2.40;;;22.20;99.90;;;;;;4939496;28;20114;-60
2023/08/22 07:45:41;;;;;;;6.55;2.70;;;22.60;99.90;;;;;;4930666;29;20024;-60
2023/08/22 07:48:07;;;;;;;8.73;2.88;;;22.90;99.90;;;;;;4930142;29;20440;-60
2023/08/22 07:50:33;;;;;;;4.60;2.42;;;23.20;99.90;;;;;;4930454;29;20495;-60
2023/08/22 07:52:59;;;;;;;4.57;2.22;;;23.30;99.90;;;;;;4930586;29;20028;-60
2023/08/22 07:55:25;;;;;;;3.13;2.05;;;23.50;99.90;;;;;;4927540;29;20078;-60
2023/08/22 07:57:51;;;;;;;4.50;2.75;;;23.50;99.90;;;;;;4929685;29;20441;-60
2023/08/22 08:00:17;;;;;;;5.72;2.80;;;23.70;99.90;;;;;;4930202;29;20107;-60
2023/08/22 08:02:43;;;;;;;4.95;1.83;;;24.00;99.90;;;;;;4930358;29;20054;-60
2023/08/22 08:05:08;;;;;;;6.70;2.40;;;24.20;99.70;;;;;;4930293;29;20503;-60
2023/08/22 08:07:34;;;;;;;4.97;2.30;;;24.50;99.90;;;;;;4937246;29;20678;-60
2023/08/22 08:10:00;;;;;;;4.93;1.80;;;24.50;99.40;;;;;;4941106;28;20138;-61
2023/08/22 08:12:26;;;;;;;7.18;2.22;;;24.50;99.40;;;;;;4948536;28;20031;-60
2023/08/22 08:14:51;;;;;;;7.38;2.85;;;24.70;98.30;;;;;;4960582;28;20023;-60
2023/08/22 08:17:18;;;;;;;5.55;2.22;;;24.60;99.30;;;;;;4946950;29;20099;-60
2023/08/22 08:19:44;;;;;;;6.35;2.40;;;24.70;98.70;;;;;;4949002;28;20254;-61
2023/08/22 08:22:11;;;;;;;4.40;2.33;;;24.90;99.20;;;;;;4948934;28;20516;-60
2023/08/22 08:24:37;;;;;;;4.72;2.42;;;25.00;98.00;;;;;;4949144;28;20015;-61
2023/08/22 08:27:02;;;;;;;4.63;1.85;;;25.10;97.40;;;;;;4948681;28;20499;-60
2023/08/22 08:29:28;;;;;;;8.48;2.38;;;24.90;97.80;;;;;;4949061;28;20028;-60
2023/08/22 08:31:56;;;;;;;5.43;2.40;;;25.00;96.50;;;;;;4948919;28;20451;-60
2023/08/22 08:34:22;;;;;;;5.30;2.00;;;26.30;96.60;;;;;;4962505;28;20043;-60
2023/08/22 08:36:48;;;;;;;5.70;2.08;;;27.50;95.90;;;;;;4948753;28;20024;-60
2023/08/22 08:39:14;;;;;;;5.65;2.08;;;28.50;92.70;;;;;;4948736;28;20081;-60
2023/08/22 08:41:48;;;;;;;3.83;1.88;;;28.90;92.30;;;;;;4948716;29;20027;-60
2023/08/22 08:44:15;;;;;;;3.30;2.22;;;29.10;91.60;;;;;;4948599;28;20571;-60
2023/08/22 08:46:41;;;;;;;5.00;2.03;;;29.50;87.80;;;;;;4948375;28;20070;-60
2023/08/22 08:49:08;;;;;;;6.95;1.88;;;29.60;85.60;;;;;;4948419;28;20019;-60
2023/08/22 08:51:35;;;;;;;3.05;1.80;;;29.00;88.40;;;;;;4942940;28;20162;-58
2023/08/22 08:54:01;;;;;;;4.20;1.65;;;29.00;87.20;;;;;;4944378;29;20027;-59
2023/08/22 08:56:27;;;;;;;2.85;1.60;;;29.30;86.40;;;;;;4948569;28;20043;-58
2023/08/22 08:58:53;;;;;;;4.32;2.03;;;29.70;87.50;;;;;;4948074;28;20053;-60
2023/08/22 09:01:18;;;;;;;5.68;2.10;;;30.00;84.80;;;;;;4945136;28;20032;-60
2023/08/22 09:03:44;;;;;;;4.57;2.00;;;30.10;83.80;;;;;;4948627;29;20031;-60
2023/08/22 09:06:10;;;;;;;6.95;2.10;;;31.10;85.70;;;;;;4948347;28;20107;-60
2023/08/22 09:08:35;;;;;;;6.70;1.80;;;31.40;81.40;;;;;;4943254;28;20074;-60
2023/08/22 09:11:02;;;;;;;5.80;1.65;;;31.10;81.30;;;;;;4944000;29;20292;-60
2023/08/22 09:13:28;;;;;;;3.55;1.60;;;31.50;79.70;;;;;;4948583;28;20427;-61
2023/08/22 09:16:01;;;;;;;5.13;1.63;;;31.40;80.80;;;;;;4948150;28;20034;-59
2023/08/22 09:18:27;;;;;;;1.90;1.40;;;31.30;82.50;;;;;;4947666;28;20031;-60
2023/08/22 09:21:00;;;;;;;3.85;1.42;;;31.30;79.10;;;;;;4948113;28;20024;-60
2023/08/22 09:23:27;;;;;;;4.03;1.83;;;31.30;79.70;;;;;;4948198;29;20033;-59
2023/08/22 09:25:54;;;;;;;7.10;1.65;;;32.00;80.30;;;;;;4940911;28;20020;-62
2023/08/22 09:28:19;;;;;;;5.50;1.80;;;32.10;77.20;;;;;;4945591;29;20020;-60
2023/08/22 09:30:53;;;;;;;4.32;1.98;;;31.60;75.60;;;;;;4942366;28;20023;-60
2023/08/22 09:33:19;;;;;;;3.80;1.80;;;32.20;76.40;;;;;;4947810;28;20514;-60
2023/08/22 09:35:46;;;;;;;4.97;1.73;;;32.70;75.50;;;;;;4948421;28;20075;-60
2023/08/22 09:38:12;;;;;;;8.32;2.13;;;32.90;75.20;;;;;;4943522;28;20024;-60
2023/08/22 09:40:50;;;;;;;5.68;1.90;;;33.40;71.70;;;;;;4948139;28;20031;-60
2023/08/22 09:43:17;;;;;;;3.97;1.73;;;33.20;72.80;;;;;;4948235;28;20034;-60
2023/08/22 09:45:43;;;;;;;3.72;1.77;;;33.30;73.40;;;;;;4943626;28;20027;-60
2023/08/22 09:48:13;;;;;;;2.85;1.17;;;33.60;71.40;;;;;;4943959;29;20032;-60
2023/08/22 09:50:42;;;;;;;4.43;1.70;;;33.40;73.00;;;;;;4947995;29;20491;-60
2023/08/22 09:53:10;;;;;;;4.47;1.60;;;32.80;72.40;;;;;;4948075;28;20031;-60
2023/08/22 09:55:37;;;;;;;2.28;1.48;;;32.30;72.70;;;;;;4947630;29;20043;-60
2023/08/22 09:58:04;;;;;;;6.80;1.77;;;32.00;74.90;;;;;;4958897;28;20024;-60
2023/08/22 10:00:31;;;;;;;2.38;1.40;;;33.10;73.70;;;;;;4947056;28;20036;-60
2023/08/22 10:03:00;;;;;;;6.60;1.75;;;33.90;72.40;;;;;;4949213;28;20081;-60
2023/08/22 10:05:26;;;;;;;3.58;1.80;;;34.40;73.50;;;;;;4951430;29;20031;-60
2023/08/22 10:07:52;;;;;;;4.82;1.58;;;34.80;69.00;;;;;;4949171;28;20035;-60
2023/08/22 10:10:17;;;;;;;3.10;1.48;;;35.70;68.70;;;;;;4940680;28;20028;-61
2023/08/22 10:12:44;;;;;;;3.42;1.60;;;35.90;70.50;;;;;;4950013;28;20023;-60
2023/08/22 10:15:14;;;;;;;3.92;1.75;;;36.10;69.60;;;;;;4948625;28;20053;-60
2023/08/22 10:17:40;;;;;;;2.92;1.23;;;36.30;64.60;;;;;;4948918;28;20058;-60
2023/08/22 10:20:06;;;;;;;3.28;2.00;;;36.30;63.70;;;;;;4941946;29;20031;-59
2023/08/22 10:22:32;;;;;;;4.70;2.65;;;35.70;64.20;;;;;;4949679;28;20036;-59
2023/08/22 10:25:04;;;;;;;4.68;1.50;;;35.00;64.40;;;;;;4936008;29;20299;-59
2023/08/22 10:27:29;;;;;;;4.05;1.85;;;34.70;64.70;;;;;;4939280;29;20038;-59
2023/08/22 10:30:14;;;;;;;4.43;1.63;;;34.90;67.60;;;;;;4941337;28;20024;-59
2023/08/22 10:32:40;;;;;;;5.50;1.27;;;34.60;63.50;;;;;;4940685;29;20024;-60
2023/08/22 10:35:09;;;;;;;3.90;1.40;;;34.50;69.70;;;;;;4946297;29;20119;-59
2023/08/22 10:37:48;;;;;;;3.00;1.75;;;34.50;67.40;;;;;;4950472;29;20019;-60
2023/08/22 10:40:51;;;;;;;6.38;1.92;;;34.30;66.10;;;;;;4950757;28;20019;-60
2023/08/22 10:43:17;;;;;;;3.80;1.85;;;34.10;69.30;;;;;;4946863;28;20473;-60
2023/08/22 10:45:48;;;;;;;3.60;1.55;;;34.30;67.80;;;;;;4962120;28;20082;-60
2023/08/22 10:48:16;;;;;;;3.97;1.60;;;34.60;65.80;;;;;;4946915;29;20095;-60
2023/08/22 10:50:44;;;;;;;4.82;1.80;;;34.50;67.70;;;;;;4950486;29;20046;-61
2023/08/22 10:53:23;;;;;;;3.60;1.52;;;35.00;67.00;;;;;;4950556;28;20016;-60
2023/08/22 10:55:49;;;;;;;;;;;34.60;62.40;;;;;;4951273;28;20031;-60
2023/08/22 10:58:36;;;;;;;3.33;1.58;;;34.40;64.60;;;;;;4949705;28;19906;-60
2023/08/22 11:01:15;;;;;;;3.63;2.42;;;34.50;66.50;;;;;;4950045;29;20038;-60
2023/08/22 11:03:42;;;;;;;6.35;1.70;;;34.70;65.50;;;;;;4950238;28;20493;-59
2023/08/22 11:06:17;;;;;;;4.95;1.70;;;34.40;65.60;;;;;;4950460;28;20473;-59
2023/08/22 11:08:43;;;;;;;5.35;1.92;;;34.10;63.20;;;;;;4949702;28;20061;-60
2023/08/22 11:11:11;;;;;;;5.13;1.88;;;34.30;66.90;;;;;;4958939;28;20020;-60
2023/08/22 11:13:38;;;;;;;3.70;1.65;;;34.40;67.80;;;;;;4943666;28;20031;-60
2023/08/22 11:16:09;;;;;;;5.70;1.88;;;35.00;65.00;;;;;;4944565;29;20024;-60
2023/08/22 11:18:35;;;;;;;3.42;1.38;;;35.00;63.30;;;;;;4937499;29;20388;-60
2023/08/22 11:21:01;;;;;;;8.25;2.15;;;35.10;64.80;;;;;;4939547;29;20081;-60
2023/08/22 11:23:30;;;;;;;4.35;1.65;;;34.70;66.50;;;;;;4938108;28;20070;-60
2023/08/22 11:25:56;;;;;;;6.38;1.83;;;35.10;68.40;;;;;;4939543;28;20020;-60
2023/08/22 11:28:29;;;;;;;4.82;1.73;;;35.90;66.90;;;;;;4942971;28;20031;-60
2023/08/22 11:30:55;;;;;;;5.15;1.70;;;35.70;63.50;;;;;;4940579;28;20047;-60
2023/08/22 11:33:20;;;;;;;1.95;1.27;;;35.00;66.60;;;;;;4938611;29;20115;-60
2023/08/22 11:35:46;;;;;;;3.63;1.85;;;34.60;67.90;;;;;;4935174;29;20484;-60
2023/08/22 11:38:11;;;;;;;2.88;1.40;;;34.50;66.50;;;;;;4938563;29;20050;-60
2023/08/22 11:40:42;;;;;;;3.10;1.48;;;34.40;66.40;;;;;;4939766;29;20427;-61
2023/08/22 11:43:09;;;;;;;4.45;1.50;;;34.20;66.60;;;;;;4936671;29;20031;-60
2023/08/22 11:45:45;;;;;;;2.70;1.60;;;33.70;66.40;;;;;;4940894;29;20027;-60
2023/08/22 11:48:13;;;;;;;4.65;1.92;;;33.20;69.00;;;;;;4949245;29;20020;-60
2023/08/22 11:50:38;;;;;;;7.45;1.90;;;32.80;69.30;;;;;;4949513;29;20016;-60
2023/08/22 11:53:14;;;;;;;5.05;1.88;;;32.30;71.70;;;;;;4943961;28;20046;-60
2023/08/22 11:55:44;;;;;;;5.97;1.92;;;31.60;68.90;;;;;;4963994;28;20055;-59
2023/08/22 11:58:17;;;;;;;4.85;2.00;;;31.00;71.70;;;;;;4938859;28;20035;-60
2023/08/22 12:00:43;;;;;;;5.82;2.67;;;30.60;75.20;;;;;;4935127;29;20396;-59
2023/08/22 12:03:09;;;;;;;3.85;2.00;;;30.50;72.40;;;;;;4942162;29;20024;-60
2023/08/22 12:05:45;;;;;;;4.03;2.05;;;30.20;74.80;;;;;;4941782;28;20083;-59
2023/08/22 12:08:11;;;;;;;4.68;2.33;;;30.00;73.70;;;;;;4940725;29;20016;-59
2023/08/22 12:10:43;;;;;;;4.50;2.17;;;29.70;73.40;;;;;;4941454;29;20027;-59
2023/08/22 12:13:11;;;;;;;3.47;1.98;;;29.40;76.00;;;;;;4943727;29;20026;-60
2023/08/22 12:15:37;;;;;;;4.28;2.05;;;29.30;73.90;;;;;;4952731;28;20023;-59
2023/08/22 12:18:06;;;;;;;7.57;2.38;;;29.20;74.10;;;;;;4941853;29;20413;-59
2023/08/22 12:20:32;;;;;;;3.13;2.03;;;29.00;75.80;;;;;;4944903;28;20062;-59
2023/08/22 12:22:58;;;;;;;4.45;2.40;;;28.90;75.60;;;;;;4944361;28;20031;-59
2023/08/22 12:25:23;;;;;;;4.78;1.75;;;28.80;77.70;;;;;;4945783;28;20031;-59
2023/08/22 12:27:49;;;;;;;6.05;2.22;;;28.70;77.50;;;;;;4948458;29;20361;-59
2023/08/22 12:30:15;;;;;;;5.82;1.90;;;28.60;75.90;;;;;;4948985;28;20022;-59
2023/08/22 12:32:45;;;;;;;8.20;2.30;;;28.40;77.70;;;;;;4948597;29;20099;-59
2023/08/22 12:35:10;;;;;;;6.57;2.40;;;28.30;76.70;;;;;;4948609;28;20063;-59
2023/08/22 12:37:40;;;;;;;6.97;2.67;;;28.20;78.30;;;;;;4944652;28;20121;-58
2023/08/22 12:40:12;;;;;;;6.00;2.05;;;28.00;78.70;;;;;;4941837;28;20042;-59
2023/08/22 12:42:41;;;;;;;5.05;2.58;;;28.20;77.60;;;;;;4939841;29;20035;-59
2023/08/22 12:45:08;;;;;;;7.32;2.70;;;28.10;77.00;;;;;;4940920;29;20054;-59
2023/08/22 12:47:35;;;;;;;5.28;2.85;;;28.30;77.30;;;;;;4945843;28;20032;-59